createdAt,value
2023-04-12T00:00:21.986Z,99799.94
2023-04-12T00:03:25.444Z,99790.94
2023-04-12T00:06:32.549Z,99779.88
2023-04-12T00:09:36.405Z,99781.22
2023-04-12T00:12:42.056Z,99777.56
2023-04-12T00:15:44.724Z,99764.22
2023-04-12T00:18:47.537Z,99760.44
2023-04-12T00:21:50.217Z,99749.94
2023-04-12T00:24:55.188Z,99747.25
2023-04-12T00:27:59.455Z,99744.38
2023-04-12T00:31:02.138Z,99738.38
2023-04-12T00:34:04.822Z,99736.56
2023-04-12T00:37:07.506Z,99734.81
2023-04-12T00:40:11.157Z,99729.91
2023-04-12T00:43:18.816Z,99719.84
2023-04-12T00:46:21.685Z,99724.44
2023-04-12T00:49:24.381Z,99723.50
2023-04-12T00:52:28.178Z,99727.72
2023-04-12T00:55:31.614Z,99730.09
2023-04-12T00:58:35.865Z,99720.75
2023-04-12T01:01:41.422Z,99717.94
2023-04-12T01:04:45.116Z,99724.91
2023-04-12T01:07:56.658Z,99717.81
2023-04-12T01:11:13.507Z,99716.88
2023-04-12T01:14:23.863Z,99696.34
2023-04-12T01:17:31.784Z,99693.97
2023-04-12T01:20:39.297Z,99715.88
2023-04-12T01:24:01.805Z,99693.88
2023-04-12T01:27:06.719Z,99693.56
2023-04-12T01:30:14.270Z,99693.13
2023-04-12T01:33:18.748Z,99693.13
2023-04-12T01:36:23.807Z,99687.06
2023-04-12T01:39:27.457Z,99680.28
2023-04-12T01:42:30.295Z,99682.50
2023-04-12T01:45:34.812Z,99676.28
2023-04-12T01:48:37.525Z,99666.19
2023-04-12T01:51:52.221Z,99660.88
2023-04-12T01:55:00.011Z,99667.81
2023-04-12T01:58:04.336Z,99666.09
2023-04-12T02:01:09.392Z,99657.75
2023-04-12T02:04:13.295Z,99657.75
2023-04-12T02:07:18.808Z,99643.56
2023-04-12T02:10:29.318Z,99645.25
2023-04-12T02:13:39.186Z,99643.56
2023-04-12T02:16:44.760Z,99636.34
2023-04-12T02:19:47.662Z,99625.94
2023-04-12T02:22:52.104Z,99624.19
2023-04-12T02:25:56.326Z,99622.75
2023-04-12T02:28:59.121Z,99617.09
2023-04-12T02:32:03.248Z,99616.16
2023-04-12T02:35:08.516Z,99601.34
2023-04-12T02:38:11.510Z,99599.09
2023-04-12T02:41:18.768Z,99593.72
2023-04-12T02:44:21.486Z,99600.38
2023-04-12T02:47:28.545Z,99593.34
2023-04-12T02:50:31.452Z,99579.84
2023-04-12T02:53:34.152Z,99570.06
2023-04-12T02:56:36.997Z,99562.81
2023-04-12T02:59:40.505Z,99561.19
2023-04-12T03:02:45.138Z,99550.28
2023-04-12T03:05:48.096Z,99566.50
2023-04-12T03:08:50.917Z,99552.91
2023-04-12T03:11:54.102Z,99548.66
2023-04-12T03:14:56.935Z,99540.44
2023-04-12T03:18:01.065Z,99536.94
2023-04-12T03:21:03.974Z,99532.13
2023-04-12T03:24:07.065Z,99523.34
2023-04-12T03:27:09.954Z,99528.38
2023-04-12T03:30:13.381Z,99514.59
2023-04-12T03:33:17.482Z,99511.22
2023-04-12T03:36:21.245Z,99507.28
2023-04-12T03:39:23.972Z,99504.81
2023-04-12T03:42:33.130Z,99505.13
2023-04-12T03:45:36.778Z,99499.38
2023-04-12T03:48:41.134Z,99493.69
2023-04-12T03:51:44.003Z,99485.72
2023-04-12T03:54:46.771Z,99487.13
2023-04-12T03:57:50.357Z,99476.88
2023-04-12T04:00:56.358Z,99478.75
2023-04-12T04:04:00.601Z,99471.19
2023-04-12T04:07:04.050Z,99457.44
2023-04-12T04:10:08.197Z,99457.66
2023-04-12T04:13:11.096Z,99458.81
2023-04-12T04:16:14.022Z,99454.19
2023-04-12T04:19:18.100Z,99439.31
2023-04-12T04:22:21.640Z,99442.41
2023-04-12T04:25:29.957Z,99432.25
2023-04-12T04:28:35.095Z,99427.34
2023-04-12T04:31:38.049Z,99424.44
2023-04-12T04:34:42.149Z,99411.47
2023-04-12T04:37:44.908Z,99415.66
2023-04-12T04:40:47.980Z,99410.13
2023-04-12T04:43:51.429Z,99406.31
2023-04-12T04:46:54.133Z,99386.09
2023-04-12T04:50:00.914Z,99385.88
2023-04-12T04:53:03.612Z,99372.69
2023-04-12T04:56:07.028Z,99379.81
2023-04-12T04:59:09.834Z,99369.84
2023-04-12T05:02:12.634Z,99375.84
2023-04-12T05:05:16.956Z,99365.88
2023-04-12T05:08:19.651Z,99362.06
2023-04-12T05:11:22.405Z,99363.66
2023-04-12T05:14:31.011Z,99366.28
2023-04-12T05:17:44.354Z,99356.50
2023-04-12T05:20:48.970Z,99361.91
2023-04-12T05:23:51.673Z,99355.53
2023-04-12T05:26:54.376Z,99350.94
2023-04-12T05:29:57.917Z,99349.75
2023-04-12T05:33:01.262Z,99337.84
2023-04-12T05:36:06.159Z,99334.56
2023-04-12T05:39:08.986Z,99331.25
2023-04-12T05:42:11.782Z,99324.38
2023-04-12T05:45:14.497Z,99320.38
2023-04-12T05:48:18.790Z,99310.78
2023-04-12T05:51:33.987Z,99310.63
2023-04-12T05:54:43.084Z,99306.50
2023-04-12T05:57:47.553Z,99300.28
2023-04-12T06:00:50.422Z,99298.41
2023-04-12T06:03:53.546Z,99293.81
2023-04-12T06:06:57.766Z,99297.06
2023-04-12T06:10:00.577Z,99286.13
2023-04-12T06:13:03.339Z,99279.84
2023-04-12T06:16:06.920Z,99269.50
2023-04-12T06:19:10.988Z,99261.09
2023-04-12T06:22:15.189Z,99264.50
2023-04-12T06:25:18.037Z,99242.81
2023-04-12T06:28:20.800Z,99238.13
2023-04-12T06:31:23.598Z,99237.97
2023-04-12T06:34:26.625Z,99233.91
2023-04-12T06:37:30.665Z,99231.97
2023-04-12T06:40:33.508Z,99220.50
2023-04-12T06:43:36.796Z,99200.53
2023-04-12T06:46:39.593Z,99208.56
2023-04-12T06:49:42.382Z,99200.91
2023-04-12T06:52:48.369Z,99190.72
2023-04-12T06:55:51.413Z,99188.63
2023-04-12T06:58:54.081Z,99182.09
2023-04-12T07:01:56.886Z,99163.78
2023-04-12T07:04:59.585Z,99161.88
2023-04-12T07:08:03.575Z,99145.97
2023-04-12T07:11:20.028Z,99134.91
2023-04-12T07:14:24.424Z,99139.38
2023-04-12T07:17:27.987Z,99133.00
2023-04-12T07:20:30.697Z,99126.63
2023-04-12T07:23:34.703Z,99122.19
2023-04-12T07:26:37.450Z,99124.59
2023-04-12T07:29:40.288Z,99116.66
2023-04-12T07:32:43.089Z,99116.50
2023-04-12T07:35:45.809Z,99113.00
2023-04-12T07:38:55.151Z,99106.56
2023-04-12T07:41:58.504Z,99102.63
2023-04-12T07:45:02.040Z,99092.41
2023-04-12T07:48:05.729Z,99095.69
2023-04-12T07:51:09.160Z,99080.72
2023-04-12T07:54:13.324Z,99061.13
2023-04-12T07:57:16.093Z,99057.06
2023-04-12T08:00:19.628Z,99051.06
2023-04-12T08:03:22.432Z,99055.13
2023-04-12T08:06:30.027Z,99045.97
2023-04-12T08:09:35.545Z,98989.25
2023-04-12T08:12:38.249Z,99017.81
2023-04-12T08:15:40.957Z,99012.66
2023-04-12T08:18:43.682Z,99001.09
2023-04-12T08:21:46.604Z,99007.47
2023-04-12T08:24:51.002Z,98987.22
2023-04-12T08:27:54.046Z,98991.56
2023-04-12T08:30:56.975Z,98976.19
2023-04-12T08:34:00.115Z,98968.47
2023-04-12T08:37:03.179Z,98971.63
2023-04-12T08:40:10.645Z,98967.72
2023-04-12T08:43:14.581Z,98968.25
2023-04-12T08:46:18.154Z,98964.19
2023-04-12T08:49:23.068Z,98951.59
2023-04-12T08:52:25.895Z,98942.19
2023-04-12T08:55:30.008Z,98947.50
2023-04-12T08:58:33.303Z,98942.97
2023-04-12T09:01:36.962Z,98934.00
2023-04-12T09:04:49.519Z,98924.91
2023-04-12T09:07:52.496Z,98915.66
2023-04-12T09:10:56.543Z,98913.69
2023-04-12T09:13:59.863Z,98899.25
2023-04-12T09:17:03.947Z,98895.72
2023-04-12T09:20:24.963Z,98893.66
2023-04-12T09:23:27.753Z,98890.84
2023-04-12T09:26:31.953Z,98894.22
2023-04-12T09:29:35.524Z,98902.78
2023-04-12T09:32:38.427Z,98887.56
2023-04-12T09:35:42.995Z,98886.88
2023-04-12T09:39:00.515Z,98887.69
2023-04-12T09:42:21.396Z,98878.09
2023-04-12T09:45:37.349Z,98867.75
2023-04-12T09:48:40.916Z,98853.41
2023-04-12T09:51:43.758Z,98861.91
2023-04-12T09:54:47.879Z,98852.19
2023-04-12T09:57:53.982Z,98843.81
2023-04-12T10:01:01.125Z,98843.34
2023-04-12T10:04:04.973Z,98834.94
2023-04-12T10:07:08.455Z,98829.81
2023-04-12T10:10:12.968Z,98818.72
2023-04-12T10:13:18.741Z,98808.88
2023-04-12T10:16:23.108Z,98802.75
2023-04-12T10:19:27.533Z,98796.19
2023-04-12T10:22:30.388Z,98776.97
2023-04-12T10:25:34.168Z,98782.38
2023-04-12T10:28:38.476Z,98789.59
2023-04-12T10:31:42.372Z,98795.03
2023-04-12T10:34:45.333Z,98781.41
2023-04-12T10:38:02.284Z,98782.75
2023-04-12T10:41:11.541Z,98772.59
2023-04-12T10:44:27.159Z,98777.69
2023-04-12T10:48:01.500Z,98771.16
2023-04-12T10:51:16.240Z,98766.66
2023-04-12T10:54:35.504Z,98767.69
2023-04-12T10:57:45.304Z,98768.09
2023-04-12T11:01:17.405Z,98768.03
2023-04-12T11:04:21.977Z,98774.44
2023-04-12T11:07:39.485Z,98758.22
2023-04-12T11:10:42.611Z,98764.16
2023-04-12T11:13:45.572Z,98758.31
2023-04-12T11:17:26.306Z,98767.09
2023-04-12T11:20:29.172Z,98752.31
2023-04-12T11:23:32.262Z,98758.56
2023-04-12T11:26:37.807Z,98755.06
2023-04-12T11:29:40.579Z,98746.00
2023-04-12T11:32:46.660Z,98740.66
2023-04-12T11:35:49.392Z,98737.69
2023-04-12T11:38:52.846Z,98736.09
2023-04-12T11:41:55.820Z,98733.19
2023-04-12T11:45:04.859Z,98724.25
2023-04-12T11:48:10.921Z,98735.69
2023-04-12T11:51:20.805Z,98729.31
2023-04-12T11:54:29.736Z,98722.94
2023-04-12T11:57:32.425Z,98729.03
2023-04-12T12:00:35.597Z,98719.66
2023-04-12T12:03:40.814Z,98721.81
2023-04-12T12:06:44.071Z,98713.34
2023-04-12T12:09:47.537Z,98712.66
2023-04-12T12:12:50.543Z,98705.00
2023-04-12T12:15:53.962Z,98695.59
2023-04-12T12:18:58.838Z,98686.47
2023-04-12T12:22:11.029Z,98684.03
2023-04-12T12:25:13.799Z,98691.94
2023-04-12T12:28:18.031Z,98673.41
2023-04-12T12:31:22.721Z,98673.38
2023-04-12T12:34:26.814Z,98661.75
2023-04-12T12:37:30.957Z,98664.97
2023-04-12T12:40:33.710Z,98659.22
2023-04-12T12:43:36.358Z,98653.22
2023-04-12T12:49:46.240Z,98651.38
2023-04-12T12:52:48.981Z,98648.31
2023-04-12T12:55:51.669Z,98642.91
2023-04-12T12:58:54.385Z,98645.88
2023-04-12T13:01:57.239Z,98642.00
2023-04-12T13:05:03.169Z,98637.94
2023-04-12T13:08:06.184Z,98646.00
2023-04-12T13:11:08.966Z,98643.41
2023-04-12T13:14:11.709Z,98632.66
2023-04-12T13:17:14.579Z,98627.06
2023-04-12T13:20:18.792Z,98609.59
2023-04-12T13:23:21.491Z,98619.41
2023-04-12T13:26:26.005Z,98613.44
2023-04-12T13:29:28.956Z,98587.63
2023-04-12T13:32:31.869Z,98600.44
2023-04-12T13:35:35.953Z,98604.09
2023-04-12T13:38:38.636Z,98602.47
2023-04-12T13:41:41.423Z,98600.78
2023-04-12T13:44:44.802Z,98606.19
2023-04-12T13:47:47.578Z,98597.47
2023-04-12T13:50:53.629Z,98596.72
2023-04-12T13:53:58.153Z,98592.88
2023-04-12T13:57:00.873Z,98583.97
2023-04-12T14:00:03.780Z,98585.38
2023-04-12T14:03:07.931Z,98576.91
2023-04-12T14:06:12.623Z,98566.06
2023-04-12T14:09:25.930Z,98556.91
2023-04-12T14:12:28.650Z,98558.06
2023-04-12T14:15:31.421Z,98552.03
2023-04-12T14:18:34.269Z,98551.13
2023-04-12T14:21:38.367Z,98560.97
2023-04-12T14:24:41.233Z,98552.53
2023-04-12T14:27:45.109Z,98556.41
2023-04-12T14:30:50.303Z,98556.06
2023-04-12T14:33:53.725Z,98555.06
2023-04-12T14:36:58.227Z,98564.19
2023-04-12T14:40:02.123Z,98564.91
2023-04-12T14:43:04.842Z,98570.38
2023-04-12T14:46:07.836Z,98563.81
2023-04-12T14:49:10.718Z,98546.69
2023-04-12T14:52:14.788Z,98566.25
2023-04-12T14:55:17.872Z,98563.22
2023-04-12T14:58:20.711Z,98571.28
2023-04-12T15:01:23.974Z,98594.72
2023-04-12T15:04:27.101Z,98596.69
2023-04-12T15:07:31.361Z,98595.94
2023-04-12T15:10:34.217Z,98611.97
2023-04-12T15:13:37.701Z,98635.63
2023-04-12T15:16:42.481Z,98626.38
2023-04-12T15:19:45.319Z,98614.31
2023-04-12T15:22:49.465Z,98621.19
2023-04-12T15:25:59.988Z,98638.47
2023-04-12T15:29:03.844Z,98643.50
2023-04-12T15:32:08.785Z,98647.38
2023-04-12T15:38:22.926Z,98601.41
2023-04-12T15:41:26.478Z,98604.66
2023-04-12T15:44:31.966Z,98603.84
2023-04-12T15:47:34.940Z,98604.78
2023-04-12T15:50:37.891Z,98613.19
2023-04-12T15:53:43.403Z,98624.00
2023-04-12T15:56:46.471Z,98612.66
2023-04-12T15:59:50.913Z,98627.03
2023-04-12T16:02:57.554Z,98640.22
2023-04-12T16:06:00.428Z,98641.81
2023-04-12T16:09:05.677Z,98645.25
2023-04-12T16:12:08.410Z,98644.34
2023-04-12T16:15:12.218Z,98626.53
2023-04-12T16:18:15.012Z,98636.25
2023-04-12T16:21:20.111Z,98632.13
2023-04-12T16:24:24.313Z,98623.22
2023-04-12T16:27:29.453Z,98623.00
2023-04-12T16:30:32.854Z,98616.69
2023-04-12T16:33:35.705Z,98625.88
2023-04-12T16:36:39.194Z,98630.19
2023-04-12T16:39:44.333Z,98621.25
2023-04-12T16:42:47.038Z,98617.78
2023-04-12T16:45:49.674Z,98625.50
2023-04-12T16:48:52.532Z,98634.25
2023-04-12T16:51:55.520Z,98638.69
2023-04-12T16:55:00.611Z,98627.63
2023-04-12T16:58:03.821Z,98625.41
2023-04-12T17:01:07.970Z,98621.13
2023-04-12T17:04:12.057Z,98624.59
2023-04-12T17:07:15.103Z,98633.63
2023-04-12T17:10:20.868Z,98629.47
2023-04-12T17:13:23.625Z,98639.78
2023-04-12T17:16:26.439Z,98633.03
2023-04-12T17:19:29.241Z,98646.19
2023-04-12T17:22:32.114Z,98638.34
2023-04-12T17:25:36.352Z,98629.72
2023-04-12T17:28:39.681Z,98631.75
2023-04-12T17:31:42.876Z,98643.38
2023-04-12T17:34:45.621Z,98646.59
2023-04-12T17:37:48.789Z,98651.50
2023-04-12T17:40:52.828Z,98654.97
2023-04-12T17:43:55.882Z,98658.94
2023-04-12T17:46:58.806Z,98664.84
2023-04-12T17:50:02.064Z,98661.53
2023-04-12T17:53:06.250Z,98669.94
2023-04-12T17:56:10.656Z,98685.63
2023-04-12T17:59:13.610Z,98689.94
2023-04-12T18:02:18.004Z,98691.75
2023-04-12T18:05:20.836Z,98689.50
2023-04-12T18:08:24.014Z,98699.47
2023-04-12T18:11:28.621Z,98716.22
2023-04-12T18:14:31.369Z,98722.88
2023-04-12T18:17:34.201Z,98721.50
2023-04-12T18:20:37.063Z,98731.59
2023-04-12T18:23:40.026Z,98741.84
2023-04-12T18:26:44.327Z,98742.31
2023-04-12T18:29:47.016Z,98742.66
2023-04-12T18:32:49.756Z,98747.59
2023-04-12T18:35:53.035Z,98753.47
2023-04-12T18:38:55.861Z,98758.47
2023-04-12T18:41:59.877Z,98764.16
2023-04-12T18:45:03.409Z,98765.47
2023-04-12T18:48:06.430Z,98783.94
2023-04-12T18:51:09.600Z,98784.50
2023-04-12T18:54:15.120Z,98788.00
2023-04-12T18:57:19.333Z,98797.56
2023-04-12T19:00:22.468Z,98805.16
2023-04-12T19:03:28.342Z,98803.13
2023-04-12T19:06:31.365Z,98818.31
2023-04-12T19:09:34.190Z,98827.09
2023-04-12T19:12:38.242Z,98832.59
2023-04-12T19:15:41.471Z,98838.66
2023-04-12T19:18:44.154Z,98835.59
2023-04-12T19:21:47.414Z,98833.00
2023-04-12T19:24:50.889Z,98817.28
2023-04-12T19:27:54.974Z,98828.69
2023-04-12T19:30:58.764Z,98829.66
2023-04-12T19:34:01.635Z,98837.88
2023-04-12T19:37:04.795Z,98829.66
2023-04-12T19:40:12.457Z,98835.59
2023-04-12T19:43:18.734Z,98844.41
2023-04-12T19:46:21.826Z,98848.84
2023-04-12T19:49:24.953Z,98857.31
2023-04-12T19:52:28.671Z,98860.34
2023-04-12T19:55:31.480Z,98852.09
2023-04-12T19:58:35.650Z,98873.16
2023-04-12T20:01:47.978Z,98896.22
2023-04-12T20:04:51.319Z,98977.41
2023-04-12T20:07:56.115Z,98963.78
2023-04-12T20:10:58.943Z,98973.03
2023-04-12T20:14:02.953Z,98970.88
2023-04-12T20:17:06.318Z,98970.59
2023-04-12T20:20:10.955Z,98959.44
2023-04-12T20:23:14.226Z,98970.63
2023-04-12T20:26:17.083Z,98975.44
2023-04-12T20:29:22.133Z,98984.75
2023-04-12T20:32:25.320Z,98984.38
2023-04-12T20:35:28.913Z,98981.09
2023-04-12T20:38:32.156Z,98980.22
2023-04-12T20:41:38.153Z,98972.22
2023-04-12T20:44:42.268Z,98991.56
2023-04-12T20:47:44.986Z,98987.81
2023-04-12T20:50:48.070Z,98988.25
2023-04-12T20:53:51.747Z,98997.13
2023-04-12T20:56:54.722Z,98991.50
2023-04-12T20:59:59.439Z,98993.91
2023-04-12T21:03:03.250Z,98996.63
2023-04-12T21:06:06.822Z,98981.09
2023-04-12T21:09:10.094Z,98994.84
2023-04-12T21:12:12.785Z,98999.03
2023-04-12T21:15:21.670Z,99005.06
2023-04-12T21:18:24.451Z,99012.81
2023-04-12T21:21:27.416Z,99019.59
2023-04-12T21:24:30.961Z,99026.56
2023-04-12T21:27:33.817Z,99026.38
2023-04-12T21:30:37.949Z,99009.22
2023-04-12T21:33:40.654Z,99003.75
2023-04-12T21:36:44.153Z,99004.13
2023-04-12T21:39:47.483Z,99019.41
2023-04-12T21:42:50.326Z,99020.97
2023-04-12T21:45:54.545Z,99016.44
2023-04-12T21:48:57.821Z,99021.84
2023-04-12T21:52:00.750Z,99018.03
2023-04-12T21:55:04.874Z,99023.59
2023-04-12T21:58:08.088Z,99022.78
2023-04-12T22:01:12.444Z,99036.19
2023-04-12T22:04:15.597Z,99025.50
2023-04-12T22:07:18.621Z,99034.72
2023-04-12T22:10:21.825Z,99037.41
2023-04-12T22:13:24.743Z,99025.69
2023-04-12T22:16:28.922Z,99039.47
2023-04-12T22:19:31.675Z,99051.41
2023-04-12T22:22:34.671Z,99052.28
2023-04-12T22:25:37.451Z,99059.00
2023-04-12T22:28:41.415Z,99069.34
2023-04-12T22:31:46.953Z,99059.91
2023-04-12T22:35:01.196Z,99058.34
2023-04-12T22:38:12.346Z,99051.91
2023-04-12T22:41:16.547Z,99051.47
2023-04-12T22:44:21.985Z,99056.13
2023-04-12T22:47:28.041Z,99065.16
2023-04-12T22:50:31.063Z,99065.44
2023-04-12T22:53:34.359Z,99065.56
2023-04-12T22:56:42.024Z,99062.13
2023-04-12T22:59:44.702Z,99064.06
2023-04-12T23:02:48.808Z,99056.22
2023-04-12T23:05:52.338Z,99056.06
2023-04-12T23:08:55.122Z,99063.25
2023-04-12T23:11:57.807Z,99065.66
2023-04-12T23:15:00.474Z,99064.16
2023-04-12T23:18:05.285Z,99070.75
2023-04-12T23:21:11.194Z,99063.53
2023-04-12T23:24:15.593Z,99064.72
2023-04-12T23:27:18.706Z,99063.84
2023-04-12T23:30:22.517Z,99055.94
2023-04-12T23:33:26.572Z,99056.00
2023-04-12T23:36:29.280Z,99056.88
2023-04-12T23:39:32.153Z,99062.50
2023-04-12T23:42:37.139Z,99069.88
2023-04-12T23:45:39.819Z,99061.03
2023-04-12T23:48:43.958Z,99053.88
2023-04-12T23:51:46.737Z,99041.38
2023-04-12T23:54:49.422Z,99038.88
2023-04-12T23:57:52.056Z,99043.50
